sensor_id;sensor_type;location;lat;lon;timestamp;pressure;altitude;pressure_sealevel;temperature;humidity
69127;BME280;56688;50.234;19.292;2023-01-01T00:00:38;98895.38;;;11.26;67.31
69127;BME280;56688;50.234;19.292;2023-01-01T00:03:05;98901.64;;;11.28;67.27
69127;BME280;56688;50.234;19.292;2023-01-01T00:05:32;98900.04;;;11.28;66.98
69127;BME280;56688;50.234;19.292;2023-01-01T00:07:59;98902.24;;;11.27;67.11
69127;BME280;56688;50.234;19.292;2023-01-01T00:10:31;98903.54;;;11.24;67.05
69127;BME280;56688;50.234;19.292;2023-01-01T00:12:58;98909.40;;;11.21;67.00
69127;BME280;56688;50.234;19.292;2023-01-01T00:15:27;98907.23;;;11.17;67.12
69127;BME280;56688;50.234;19.292;2023-01-01T00:17:54;98910.10;;;11.12;67.19
69127;BME280;56688;50.234;19.292;2023-01-01T00:20:21;98910.00;;;11.08;67.27
69127;BME280;56688;50.234;19.292;2023-01-01T00:22:48;98896.88;;;11.08;67.13
69127;BME280;56688;50.234;19.292;2023-01-01T00:25:23;98891.35;;;11.06;67.07
69127;BME280;56688;50.234;19.292;2023-01-01T00:27:51;98889.73;;;11.03;67.25
69127;BME280;56688;50.234;19.292;2023-01-01T00:30:18;98886.33;;;11.02;67.26
69127;BME280;56688;50.234;19.292;2023-01-01T00:32:45;98890.52;;;10.98;67.37
69127;BME280;56688;50.234;19.292;2023-01-01T00:35:23;98894.00;;;10.90;66.95
69127;BME280;56688;50.234;19.292;2023-01-01T00:37:51;98892.65;;;10.76;66.97
69127;BME280;56688;50.234;19.292;2023-01-01T00:40:18;98888.12;;;10.58;67.45
69127;BME280;56688;50.234;19.292;2023-01-01T00:42:45;98885.42;;;10.40;67.96
69127;BME280;56688;50.234;19.292;2023-01-01T00:45:12;98882.58;;;10.24;68.43
69127;BME280;56688;50.234;19.292;2023-01-01T00:47:46;98883.60;;;10.11;68.85
69127;BME280;56688;50.234;19.292;2023-01-01T00:50:13;98883.20;;;9.99;69.39
69127;BME280;56688;50.234;19.292;2023-01-01T00:52:40;98886.58;;;9.90;69.96
69127;BME280;56688;50.234;19.292;2023-01-01T00:55:07;98899.36;;;9.84;70.12
69127;BME280;56688;50.234;19.292;2023-01-01T00:57:34;98897.88;;;9.76;70.20
69127;BME280;56688;50.234;19.292;2023-01-01T01:00:02;98904.32;;;9.70;70.26
69127;BME280;56688;50.234;19.292;2023-01-01T01:02:30;98905.64;;;9.61;70.75
69127;BME280;56688;50.234;19.292;2023-01-01T01:04:57;98908.28;;;9.52;70.09
69127;BME280;56688;50.234;19.292;2023-01-01T01:07:23;98906.84;;;9.42;70.20
69127;BME280;56688;50.234;19.292;2023-01-01T01:09:51;98901.95;;;9.35;70.16
69127;BME280;56688;50.234;19.292;2023-01-01T01:12:18;98900.81;;;9.26;70.33
69127;BME280;56688;50.234;19.292;2023-01-01T01:14:45;98899.95;;;9.16;70.06
69127;BME280;56688;50.234;19.292;2023-01-01T01:17:12;98904.31;;;9.04;69.99
69127;BME280;56688;50.234;19.292;2023-01-01T01:19:39;98906.58;;;8.90;70.24
69127;BME280;56688;50.234;19.292;2023-01-01T01:22:06;98908.55;;;8.77;70.66
69127;BME280;56688;50.234;19.292;2023-01-01T01:24:32;98906.14;;;8.67;71.03
69127;BME280;56688;50.234;19.292;2023-01-01T01:26:59;98910.61;;;8.55;71.08
69127;BME280;56688;50.234;19.292;2023-01-01T01:29:26;98912.80;;;8.41;71.32
69127;BME280;56688;50.234;19.292;2023-01-01T01:31:53;98909.81;;;8.27;71.01
69127;BME280;56688;50.234;19.292;2023-01-01T01:34:20;98913.39;;;8.17;71.32
69127;BME280;56688;50.234;19.292;2023-01-01T01:36:52;98912.96;;;8.09;71.80
69127;BME280;56688;50.234;19.292;2023-01-01T01:39:19;98912.11;;;8.04;72.21
69127;BME280;56688;50.234;19.292;2023-01-01T01:41:46;98909.57;;;7.98;71.99
69127;BME280;56688;50.234;19.292;2023-01-01T01:47:17;98906.44;;;7.75;72.48
69127;BME280;56688;50.234;19.292;2023-01-01T01:49:46;98906.83;;;7.63;72.52
69127;BME280;56688;50.234;19.292;2023-01-01T01:52:15;98901.85;;;7.53;72.64
69127;BME280;56688;50.234;19.292;2023-01-01T01:54:42;98897.79;;;7.44;73.39
69127;BME280;56688;50.234;19.292;2023-01-01T01:57:10;98894.70;;;7.40;73.96
69127;BME280;56688;50.234;19.292;2023-01-01T01:59:42;98892.61;;;7.38;74.18
69127;BME280;56688;50.234;19.292;2023-01-01T02:02:16;98890.86;;;7.36;74.34
69127;BME280;56688;50.234;19.292;2023-01-01T02:04:48;98892.80;;;7.35;74.17
69127;BME280;56688;50.234;19.292;2023-01-01T02:07:16;98884.84;;;7.31;74.48
69127;BME280;56688;50.234;19.292;2023-01-01T02:09:44;98891.54;;;7.26;74.17
69127;BME280;56688;50.234;19.292;2023-01-01T02:12:11;98895.52;;;7.18;74.65
69127;BME280;56688;50.234;19.292;2023-01-01T02:14:38;98900.80;;;7.12;74.75
69127;BME280;56688;50.234;19.292;2023-01-01T02:17:12;98896.89;;;7.05;74.54
69127;BME280;56688;50.234;19.292;2023-01-01T02:22:14;98890.77;;;6.94;74.43
69127;BME280;56688;50.234;19.292;2023-01-01T02:27:37;98889.93;;;6.79;74.97
69127;BME280;56688;50.234;19.292;2023-01-01T02:30:10;98889.02;;;6.71;74.29
69127;BME280;56688;50.234;19.292;2023-01-01T02:32:46;98893.86;;;6.55;74.36
69127;BME280;56688;50.234;19.292;2023-01-01T02:35:24;98884.17;;;6.40;74.88
69127;BME280;56688;50.234;19.292;2023-01-01T02:40:39;98868.30;;;6.20;75.34
69127;BME280;56688;50.234;19.292;2023-01-01T02:43:08;98877.94;;;6.19;75.86
69127;BME280;56688;50.234;19.292;2023-01-01T02:45:35;98874.39;;;6.16;75.97
69127;BME280;56688;50.234;19.292;2023-01-01T02:48:04;98883.28;;;6.09;75.94
69127;BME280;56688;50.234;19.292;2023-01-01T02:50:31;98893.20;;;6.04;75.71
69127;BME280;56688;50.234;19.292;2023-01-01T02:53:19;98889.79;;;5.99;75.77
69127;BME280;56688;50.234;19.292;2023-01-01T02:55:57;98892.34;;;5.95;76.32
69127;BME280;56688;50.234;19.292;2023-01-01T03:01:33;98903.50;;;5.87;76.54
69127;BME280;56688;50.234;19.292;2023-01-01T03:04:24;98912.40;;;5.82;77.06
69127;BME280;56688;50.234;19.292;2023-01-01T03:07:01;98937.20;;;5.78;77.08
69127;BME280;56688;50.234;19.292;2023-01-01T03:09:41;98929.41;;;5.73;76.82
69127;BME280;56688;50.234;19.292;2023-01-01T03:14:49;98924.86;;;5.50;76.17
69127;BME280;56688;50.234;19.292;2023-01-01T03:17:24;98923.31;;;5.42;76.75
69127;BME280;56688;50.234;19.292;2023-01-01T03:19:54;98917.77;;;5.38;77.08
69127;BME280;56688;50.234;19.292;2023-01-01T03:22:27;98911.98;;;5.32;77.28
69127;BME280;56688;50.234;19.292;2023-01-01T03:24:58;98914.76;;;5.26;77.99
69127;BME280;56688;50.234;19.292;2023-01-01T03:27:30;98911.11;;;5.22;78.36
69127;BME280;56688;50.234;19.292;2023-01-01T03:30:00;98903.71;;;5.20;78.23
69127;BME280;56688;50.234;19.292;2023-01-01T03:32:34;98901.59;;;5.18;78.13
69127;BME280;56688;50.234;19.292;2023-01-01T03:35:20;98910.23;;;5.13;78.06
69127;BME280;56688;50.234;19.292;2023-01-01T03:37:52;98917.38;;;5.10;78.51
69127;BME280;56688;50.234;19.292;2023-01-01T03:40:21;98915.40;;;5.08;78.29
69127;BME280;56688;50.234;19.292;2023-01-01T03:43:02;98926.30;;;5.05;78.58
69127;BME280;56688;50.234;19.292;2023-01-01T03:45:37;98924.27;;;5.02;78.56
69127;BME280;56688;50.234;19.292;2023-01-01T03:48:04;98922.05;;;5.01;78.52
69127;BME280;56688;50.234;19.292;2023-01-01T03:50:40;98923.07;;;5.00;78.77
69127;BME280;56688;50.234;19.292;2023-01-01T03:53:23;98922.88;;;4.98;79.03
69127;BME280;56688;50.234;19.292;2023-01-01T03:58:41;98918.23;;;4.91;79.13
69127;BME280;56688;50.234;19.292;2023-01-01T04:01:17;98913.14;;;4.91;79.08
69127;BME280;56688;50.234;19.292;2023-01-01T04:03:46;98912.89;;;4.90;78.73
69127;BME280;56688;50.234;19.292;2023-01-01T04:06:14;98909.65;;;4.91;79.77
69127;BME280;56688;50.234;19.292;2023-01-01T04:08:41;98908.77;;;4.94;80.07
69127;BME280;56688;50.234;19.292;2023-01-01T04:11:16;98907.57;;;4.98;80.65
69127;BME280;56688;50.234;19.292;2023-01-01T04:14:00;98913.51;;;5.04;80.63
69127;BME280;56688;50.234;19.292;2023-01-01T04:16:27;98911.52;;;5.09;81.19
69127;BME280;56688;50.234;19.292;2023-01-01T04:18:54;98909.20;;;5.13;81.26
69127;BME280;56688;50.234;19.292;2023-01-01T04:21:21;98904.98;;;5.16;81.17
69127;BME280;56688;50.234;19.292;2023-01-01T04:23:48;98909.37;;;5.22;81.23
69127;BME280;56688;50.234;19.292;2023-01-01T04:26:15;98903.18;;;5.27;80.96
69127;BME280;56688;50.234;19.292;2023-01-01T04:28:43;98903.27;;;5.34;80.71
69127;BME280;56688;50.234;19.292;2023-01-01T04:31:10;98905.02;;;5.40;80.89
69127;BME280;56688;50.234;19.292;2023-01-01T04:33:37;98919.23;;;5.45;80.70
69127;BME280;56688;50.234;19.292;2023-01-01T04:36:06;98912.30;;;5.48;80.22
69127;BME280;56688;50.234;19.292;2023-01-01T04:38:35;98911.90;;;5.47;80.31
69127;BME280;56688;50.234;19.292;2023-01-01T04:41:03;98914.48;;;5.48;80.85
69127;BME280;56688;50.234;19.292;2023-01-01T04:43:30;98912.52;;;5.54;81.22
69127;BME280;56688;50.234;19.292;2023-01-01T04:45:59;98925.52;;;5.64;81.12
69127;BME280;56688;50.234;19.292;2023-01-01T04:48:27;98922.05;;;5.73;80.97
69127;BME280;56688;50.234;19.292;2023-01-01T04:50:56;98932.77;;;5.80;80.79
69127;BME280;56688;50.234;19.292;2023-01-01T04:53:24;98936.41;;;5.87;80.77
69127;BME280;56688;50.234;19.292;2023-01-01T04:55:51;98938.14;;;5.93;80.45
69127;BME280;56688;50.234;19.292;2023-01-01T04:58:18;98937.27;;;5.98;80.70
69127;BME280;56688;50.234;19.292;2023-01-01T05:00:49;98935.38;;;6.04;80.47
69127;BME280;56688;50.234;19.292;2023-01-01T05:03:16;98920.96;;;6.11;80.73
69127;BME280;56688;50.234;19.292;2023-01-01T05:05:43;98926.10;;;6.17;80.79
69127;BME280;56688;50.234;19.292;2023-01-01T05:08:16;98930.48;;;6.30;81.20
69127;BME280;56688;50.234;19.292;2023-01-01T05:10:43;98917.14;;;6.41;80.96
69127;BME280;56688;50.234;19.292;2023-01-01T05:13:11;98917.89;;;6.51;81.13
69127;BME280;56688;50.234;19.292;2023-01-01T05:15:38;98931.77;;;6.65;81.17
69127;BME280;56688;50.234;19.292;2023-01-01T05:18:04;98935.61;;;6.74;80.59
69127;BME280;56688;50.234;19.292;2023-01-01T05:20:31;98936.70;;;6.83;80.41
69127;BME280;56688;50.234;19.292;2023-01-01T05:22:58;98942.59;;;6.96;81.02
69127;BME280;56688;50.234;19.292;2023-01-01T05:25:25;98936.16;;;7.12;81.03
69127;BME280;56688;50.234;19.292;2023-01-01T05:27:52;98950.12;;;7.44;80.76
69127;BME280;56688;50.234;19.292;2023-01-01T05:30:20;98953.31;;;7.82;79.72
69127;BME280;56688;50.234;19.292;2023-01-01T05:32:48;98947.67;;;8.13;78.65
69127;BME280;56688;50.234;19.292;2023-01-01T05:35:15;98953.86;;;8.41;77.30
69127;BME280;56688;50.234;19.292;2023-01-01T05:37:47;98957.38;;;8.71;75.68
69127;BME280;56688;50.234;19.292;2023-01-01T05:40:13;98961.39;;;9.01;74.30
69127;BME280;56688;50.234;19.292;2023-01-01T05:42:40;98966.43;;;9.28;72.88
69127;BME280;56688;50.234;19.292;2023-01-01T05:45:07;98957.30;;;9.46;72.03
69127;BME280;56688;50.234;19.292;2023-01-01T05:47:35;98956.98;;;9.65;71.14
69127;BME280;56688;50.234;19.292;2023-01-01T05:50:02;98952.64;;;9.81;70.38
69127;BME280;56688;50.234;19.292;2023-01-01T05:52:31;98952.38;;;9.96;69.39
69127;BME280;56688;50.234;19.292;2023-01-01T05:54:58;98944.66;;;10.08;68.90
69127;BME280;56688;50.234;19.292;2023-01-01T05:57:27;98943.57;;;10.19;68.23
69127;BME280;56688;50.234;19.292;2023-01-01T05:59:54;98948.03;;;10.32;67.60
69127;BME280;56688;50.234;19.292;2023-01-01T06:02:20;98955.59;;;10.46;67.10
69127;BME280;56688;50.234;19.292;2023-01-01T06:04:47;98957.55;;;10.59;66.97
69127;BME280;56688;50.234;19.292;2023-01-01T06:07:14;98960.37;;;10.67;66.42
69127;BME280;56688;50.234;19.292;2023-01-01T06:09:41;98961.73;;;10.76;66.05
69127;BME280;56688;50.234;19.292;2023-01-01T06:12:08;98965.33;;;10.85;65.91
69127;BME280;56688;50.234;19.292;2023-01-01T06:14:35;98965.09;;;10.93;65.61
69127;BME280;56688;50.234;19.292;2023-01-01T06:17:02;98967.11;;;10.96;65.35
69127;BME280;56688;50.234;19.292;2023-01-01T06:19:29;98972.72;;;11.04;64.87
69127;BME280;56688;50.234;19.292;2023-01-01T06:21:56;98976.29;;;11.13;64.48
69127;BME280;56688;50.234;19.292;2023-01-01T06:24:23;98980.67;;;11.22;64.12
69127;BME280;56688;50.234;19.292;2023-01-01T06:26:50;98988.69;;;11.29;63.65
69127;BME280;56688;50.234;19.292;2023-01-01T06:29:19;98987.20;;;11.34;63.43
69127;BME280;56688;50.234;19.292;2023-01-01T06:31:46;98989.65;;;11.37;63.31
69127;BME280;56688;50.234;19.292;2023-01-01T06:34:12;98996.04;;;11.38;63.27
69127;BME280;56688;50.234;19.292;2023-01-01T06:36:39;98997.71;;;11.37;63.38
69127;BME280;56688;50.234;19.292;2023-01-01T06:39:06;99004.50;;;11.36;63.32
69127;BME280;56688;50.234;19.292;2023-01-01T06:41:33;99002.16;;;11.33;63.52
69127;BME280;56688;50.234;19.292;2023-01-01T06:44:00;99001.45;;;11.33;63.53
69127;BME280;56688;50.234;19.292;2023-01-01T06:46:30;99008.02;;;11.34;63.27
69127;BME280;56688;50.234;19.292;2023-01-01T06:49:03;99015.73;;;11.36;63.31
69127;BME280;56688;50.234;19.292;2023-01-01T06:51:37;99015.41;;;11.32;63.37
69127;BME280;56688;50.234;19.292;2023-01-01T06:54:04;99014.52;;;11.29;63.44
69127;BME280;56688;50.234;19.292;2023-01-01T06:56:32;99017.66;;;11.27;63.67
69127;BME280;56688;50.234;19.292;2023-01-01T06:58:59;99022.92;;;11.24;63.80
69127;BME280;56688;50.234;19.292;2023-01-01T07:01:29;99021.93;;;11.24;63.85
69127;BME280;56688;50.234;19.292;2023-01-01T07:03:58;99032.08;;;11.27;63.84
69127;BME280;56688;50.234;19.292;2023-01-01T07:06:26;99031.69;;;11.31;63.67
69127;BME280;56688;50.234;19.292;2023-01-01T07:08:54;99030.94;;;11.33;63.51
69127;BME280;56688;50.234;19.292;2023-01-01T07:11:21;99033.52;;;11.36;63.50
69127;BME280;56688;50.234;19.292;2023-01-01T07:13:48;99038.61;;;11.38;63.52
69127;BME280;56688;50.234;19.292;2023-01-01T07:16:15;99048.33;;;11.39;63.59
69127;BME280;56688;50.234;19.292;2023-01-01T07:18:42;99039.70;;;11.38;63.65
69127;BME280;56688;50.234;19.292;2023-01-01T07:21:27;99042.58;;;11.37;63.86
69127;BME280;56688;50.234;19.292;2023-01-01T07:26:25;99045.66;;;11.42;63.57
69127;BME280;56688;50.234;19.292;2023-01-01T07:28:53;99044.92;;;11.44;63.58
69127;BME280;56688;50.234;19.292;2023-01-01T07:31:25;99051.52;;;11.44;63.42
69127;BME280;56688;50.234;19.292;2023-01-01T07:33:52;99051.30;;;11.44;63.39
69127;BME280;56688;50.234;19.292;2023-01-01T07:36:18;99052.71;;;11.44;63.22
69127;BME280;56688;50.234;19.292;2023-01-01T07:38:45;99058.15;;;11.45;63.20
69127;BME280;56688;50.234;19.292;2023-01-01T07:41:12;99064.05;;;11.46;63.02
69127;BME280;56688;50.234;19.292;2023-01-01T07:43:39;99058.11;;;11.45;62.87
69127;BME280;56688;50.234;19.292;2023-01-01T07:46:05;99065.86;;;11.49;63.09
69127;BME280;56688;50.234;19.292;2023-01-01T07:48:32;99067.71;;;11.53;62.77
69127;BME280;56688;50.234;19.292;2023-01-01T07:51:05;99067.46;;;11.58;62.38
69127;BME280;56688;50.234;19.292;2023-01-01T07:53:32;99072.10;;;11.62;62.34
69127;BME280;56688;50.234;19.292;2023-01-01T07:55:59;99074.96;;;11.66;62.05
69127;BME280;56688;50.234;19.292;2023-01-01T07:58:26;99079.17;;;11.69;62.29
69127;BME280;56688;50.234;19.292;2023-01-01T08:00:53;99086.20;;;11.72;62.18
69127;BME280;56688;50.234;19.292;2023-01-01T08:03:20;99085.03;;;11.73;62.02
69127;BME280;56688;50.234;19.292;2023-01-01T08:05:46;99084.66;;;11.74;61.61
69127;BME280;56688;50.234;19.292;2023-01-01T08:08:14;99083.30;;;11.78;61.49
69127;BME280;56688;50.234;19.292;2023-01-01T08:10:41;99091.68;;;11.82;61.33
69127;BME280;56688;50.234;19.292;2023-01-01T08:13:08;99103.47;;;11.85;61.28
69127;BME280;56688;50.234;19.292;2023-01-01T08:15:35;99106.66;;;11.86;61.13
69127;BME280;56688;50.234;19.292;2023-01-01T08:18:03;99109.27;;;11.89;61.17
69127;BME280;56688;50.234;19.292;2023-01-01T08:20:31;99113.34;;;11.94;60.99
69127;BME280;56688;50.234;19.292;2023-01-01T08:23:01;99117.53;;;12.02;60.88
69127;BME280;56688;50.234;19.292;2023-01-01T08:25:33;99116.15;;;12.08;60.46
69127;BME280;56688;50.234;19.292;2023-01-01T08:28:00;99120.23;;;12.16;60.32
69127;BME280;56688;50.234;19.292;2023-01-01T08:30:27;99117.41;;;12.23;60.02
69127;BME280;56688;50.234;19.292;2023-01-01T08:32:54;99117.25;;;12.29;59.81
69127;BME280;56688;50.234;19.292;2023-01-01T08:35:21;99118.52;;;12.35;59.71
69127;BME280;56688;50.234;19.292;2023-01-01T08:37:48;99117.54;;;12.38;59.65
69127;BME280;56688;50.234;19.292;2023-01-01T08:40:15;99123.23;;;12.41;59.66
69127;BME280;56688;50.234;19.292;2023-01-01T08:42:42;99122.09;;;12.44;59.93
69127;BME280;56688;50.234;19.292;2023-01-01T08:45:09;99126.06;;;12.46;59.76
69127;BME280;56688;50.234;19.292;2023-01-01T08:47:36;99131.77;;;12.46;59.55
69127;BME280;56688;50.234;19.292;2023-01-01T08:50:04;99132.21;;;12.50;59.34
69127;BME280;56688;50.234;19.292;2023-01-01T08:52:31;99137.02;;;12.55;59.20
69127;BME280;56688;50.234;19.292;2023-01-01T08:54:58;99139.35;;;12.59;59.12
69127;BME280;56688;50.234;19.292;2023-01-01T08:57:25;99142.61;;;12.64;59.07
69127;BME280;56688;50.234;19.292;2023-01-01T08:59:51;99145.81;;;12.76;58.84
69127;BME280;56688;50.234;19.292;2023-01-01T09:02:18;99141.14;;;13.04;58.51
69127;BME280;56688;50.234;19.292;2023-01-01T09:04:46;99133.23;;;13.55;57.31
69127;BME280;56688;50.234;19.292;2023-01-01T09:07:13;99127.21;;;14.15;55.94
69127;BME280;56688;50.234;19.292;2023-01-01T09:09:40;99128.56;;;14.70;54.13
69127;BME280;56688;50.234;19.292;2023-01-01T09:12:06;99128.51;;;15.17;52.85
69127;BME280;56688;50.234;19.292;2023-01-01T09:14:35;99130.45;;;15.66;51.49
69127;BME280;56688;50.234;19.292;2023-01-01T09:17:01;99129.13;;;16.24;50.53
69127;BME280;56688;50.234;19.292;2023-01-01T09:19:28;99125.21;;;16.89;49.11
69127;BME280;56688;50.234;19.292;2023-01-01T09:21:56;99120.18;;;17.39;47.58
69127;BME280;56688;50.234;19.292;2023-01-01T09:24:23;99111.59;;;17.74;46.07
69127;BME280;56688;50.234;19.292;2023-01-01T09:26:50;99105.52;;;18.14;45.58
69127;BME280;56688;50.234;19.292;2023-01-01T09:29:17;99103.17;;;18.57;44.22
69127;BME280;56688;50.234;19.292;2023-01-01T09:31:47;99105.02;;;18.83;43.41
69127;BME280;56688;50.234;19.292;2023-01-01T09:34:14;99105.45;;;18.96;42.82
69127;BME280;56688;50.234;19.292;2023-01-01T09:36:42;99091.59;;;19.01;43.03
69127;BME280;56688;50.234;19.292;2023-01-01T09:39:12;99084.11;;;19.15;43.05
69127;BME280;56688;50.234;19.292;2023-01-01T09:42:01;99083.95;;;19.33;42.18
69127;BME280;56688;50.234;19.292;2023-01-01T09:47:39;99086.18;;;19.56;41.57
69127;BME280;56688;50.234;19.292;2023-01-01T09:50:12;99079.52;;;19.73;41.14
69127;BME280;56688;50.234;19.292;2023-01-01T09:52:46;99079.11;;;19.80;40.81
69127;BME280;56688;50.234;19.292;2023-01-01T09:55:23;99079.63;;;19.79;40.98
69127;BME280;56688;50.234;19.292;2023-01-01T09:57:51;99074.59;;;19.86;41.37
69127;BME280;56688;50.234;19.292;2023-01-01T10:00:18;99070.24;;;19.86;40.90
69127;BME280;56688;50.234;19.292;2023-01-01T10:02:52;99078.06;;;19.80;40.93
69127;BME280;56688;50.234;19.292;2023-01-01T10:05:45;99079.46;;;19.66;41.13
69127;BME280;56688;50.234;19.292;2023-01-01T10:10:51;99084.88;;;19.48;41.46
69127;BME280;56688;50.234;19.292;2023-01-01T10:13:38;99091.16;;;19.46;41.79
69127;BME280;56688;50.234;19.292;2023-01-01T10:18:40;99076.42;;;19.44;42.18
69127;BME280;56688;50.234;19.292;2023-01-01T10:21:14;99080.75;;;19.37;41.88
69127;BME280;56688;50.234;19.292;2023-01-01T10:23:46;99080.71;;;19.26;42.20
69127;BME280;56688;50.234;19.292;2023-01-01T10:26:19;99082.66;;;19.20;41.79
69127;BME280;56688;50.234;19.292;2023-01-01T10:33:44;99090.00;;;18.67;42.91
69127;BME280;56688;50.234;19.292;2023-01-01T10:36:15;99078.02;;;18.50;43.24
69127;BME280;56688;50.234;19.292;2023-01-01T10:38:43;99066.30;;;18.40;43.33
69127;BME280;56688;50.234;19.292;2023-01-01T10:41:11;99062.83;;;18.42;43.51
69127;BME280;56688;50.234;19.292;2023-01-01T10:43:46;99064.52;;;18.46;42.94
69127;BME280;56688;50.234;19.292;2023-01-01T10:46:18;99064.79;;;18.53;42.92
69127;BME280;56688;50.234;19.292;2023-01-01T10:49:07;99051.73;;;18.67;42.50
69127;BME280;56688;50.234;19.292;2023-01-01T10:51:41;99050.45;;;18.71;42.23
69127;BME280;56688;50.234;19.292;2023-01-01T10:54:33;99049.28;;;18.70;42.50
69127;BME280;56688;50.234;19.292;2023-01-01T10:57:13;99048.07;;;18.71;42.30
69127;BME280;56688;50.234;19.292;2023-01-01T10:59:42;99046.52;;;18.68;42.56
69127;BME280;56688;50.234;19.292;2023-01-01T11:02:22;99038.99;;;18.74;42.61
69127;BME280;56688;50.234;19.292;2023-01-01T11:04:51;99037.84;;;18.86;42.88
69127;BME280;56688;50.234;19.292;2023-01-01T11:07:30;99043.08;;;18.96;42.41
69127;BME280;56688;50.234;19.292;2023-01-01T11:10:01;99049.45;;;19.02;42.40
69127;BME280;56688;50.234;19.292;2023-01-01T11:12:35;99037.42;;;19.01;42.33
69127;BME280;56688;50.234;19.292;2023-01-01T11:15:40;99034.02;;;18.96;42.20
69127;BME280;56688;50.234;19.292;2023-01-01T11:18:14;99027.14;;;18.88;42.10
69127;BME280;56688;50.234;19.292;2023-01-01T11:20:42;99032.40;;;18.78;42.26
69127;BME280;56688;50.234;19.292;2023-01-01T11:23:32;99030.98;;;18.72;42.44
69127;BME280;56688;50.234;19.292;2023-01-01T11:28:32;99021.05;;;18.67;42.57
69127;BME280;56688;50.234;19.292;2023-01-01T11:31:04;99020.48;;;18.82;42.01
69127;BME280;56688;50.234;19.292;2023-01-01T11:33:37;99010.80;;;18.92;41.70
69127;BME280;56688;50.234;19.292;2023-01-01T11:36:06;99007.36;;;18.95;41.08
69127;BME280;56688;50.234;19.292;2023-01-01T11:38:33;99005.34;;;18.90;40.97
69127;BME280;56688;50.234;19.292;2023-01-01T11:41:04;99003.79;;;18.96;41.30
69127;BME280;56688;50.234;19.292;2023-01-01T11:43:38;98999.41;;;19.10;41.17
69127;BME280;56688;50.234;19.292;2023-01-01T11:46:08;99002.02;;;19.27;41.19
69127;BME280;56688;50.234;19.292;2023-01-01T11:48:40;99007.48;;;19.49;40.67
69127;BME280;56688;50.234;19.292;2023-01-01T11:51:10;99010.52;;;19.67;40.60
69127;BME280;56688;50.234;19.292;2023-01-01T11:54:07;99016.70;;;19.71;40.56
69127;BME280;56688;50.234;19.292;2023-01-01T11:56:35;99023.50;;;19.75;40.54
69127;BME280;56688;50.234;19.292;2023-01-01T11:59:13;99030.91;;;19.88;40.95
69127;BME280;56688;50.234;19.292;2023-01-01T12:01:45;99033.62;;;20.07;40.54
69127;BME280;56688;50.234;19.292;2023-01-01T12:06:51;99041.90;;;20.17;40.15
69127;BME280;56688;50.234;19.292;2023-01-01T12:09:22;99041.79;;;20.21;40.10
69127;BME280;56688;50.234;19.292;2023-01-01T12:11:52;99043.19;;;20.22;39.95
69127;BME280;56688;50.234;19.292;2023-01-01T12:19:50;99038.04;;;20.54;39.19
69127;BME280;56688;50.234;19.292;2023-01-01T12:22:19;99026.61;;;20.72;38.93
69127;BME280;56688;50.234;19.292;2023-01-01T12:24:47;99018.35;;;20.79;38.39
69127;BME280;56688;50.234;19.292;2023-01-01T12:30:00;99007.13;;;20.80;38.10
69127;BME280;56688;50.234;19.292;2023-01-01T12:38:05;99011.67;;;20.91;37.97
69127;BME280;56688;50.234;19.292;2023-01-01T12:40:38;99009.48;;;20.86;38.11
69127;BME280;56688;50.234;19.292;2023-01-01T12:50:59;99001.89;;;21.17;37.73
69127;BME280;56688;50.234;19.292;2023-01-01T12:56:15;99017.86;;;21.17;38.02
69127;BME280;56688;50.234;19.292;2023-01-01T12:59:05;99021.93;;;21.15;38.25
69127;BME280;56688;50.234;19.292;2023-01-01T13:01:36;99023.71;;;21.11;37.96
69127;BME280;56688;50.234;19.292;2023-01-01T13:04:10;99021.91;;;20.86;38.43
69127;BME280;56688;50.234;19.292;2023-01-01T13:06:59;99029.71;;;20.85;38.65
69127;BME280;56688;50.234;19.292;2023-01-01T13:09:33;99037.87;;;20.69;38.71
69127;BME280;56688;50.234;19.292;2023-01-01T13:12:09;99045.11;;;20.38;39.76
69127;BME280;56688;50.234;19.292;2023-01-01T13:14:38;99042.48;;;20.20;40.13
69127;BME280;56688;50.234;19.292;2023-01-01T13:17:23;99045.09;;;20.00;40.26
69127;BME280;56688;50.234;19.292;2023-01-01T13:38:55;99043.52;;;18.31;43.48
69127;BME280;56688;50.234;19.292;2023-01-01T14:02:52;99070.09;;;16.15;49.11
69127;BME280;56688;50.234;19.292;2023-01-01T14:10:56;99076.43;;;15.67;50.46
69127;BME280;56688;50.234;19.292;2023-01-01T14:13:23;99078.46;;;15.56;50.86
69127;BME280;56688;50.234;19.292;2023-01-01T14:15:57;99081.11;;;15.45;51.13
69127;BME280;56688;50.234;19.292;2023-01-01T14:18:32;99084.31;;;15.35;51.44
69127;BME280;56688;50.234;19.292;2023-01-01T14:21:01;99094.58;;;15.22;51.51
69127;BME280;56688;50.234;19.292;2023-01-01T14:25:57;99096.08;;;14.98;52.28
69127;BME280;56688;50.234;19.292;2023-01-01T14:28:27;99097.88;;;14.84;52.63
69127;BME280;56688;50.234;19.292;2023-01-01T14:30:56;99096.63;;;14.70;52.88
69127;BME280;56688;50.234;19.292;2023-01-01T14:33:30;99103.06;;;14.58;53.18
69127;BME280;56688;50.234;19.292;2023-01-01T14:36:00;99100.96;;;14.46;53.34
69127;BME280;56688;50.234;19.292;2023-01-01T14:43:40;99103.02;;;14.19;54.14
69127;BME280;56688;50.234;19.292;2023-01-01T14:46:14;99103.05;;;14.12;54.36
69127;BME280;56688;50.234;19.292;2023-01-01T14:48:44;99101.69;;;14.07;54.37
69127;BME280;56688;50.234;19.292;2023-01-01T14:51:14;99105.14;;;14.03;54.57
69127;BME280;56688;50.234;19.292;2023-01-01T14:53:58;99107.62;;;13.98;54.74
69127;BME280;56688;50.234;19.292;2023-01-01T14:59:06;99112.77;;;13.89;54.95
69127;BME280;56688;50.234;19.292;2023-01-01T15:01:33;99107.02;;;13.86;55.14
69127;BME280;56688;50.234;19.292;2023-01-01T15:04:03;99110.19;;;13.83;55.41
69127;BME280;56688;50.234;19.292;2023-01-01T15:06:31;99112.10;;;13.79;55.43
69127;BME280;56688;50.234;19.292;2023-01-01T15:08:59;99119.52;;;13.76;55.49